Main page
METAR-TAF:

METAR-TAF

Airports :

Castres–Mazamet Airport

Castres, France

latitude: 43-33-25N, longitude: 2-17-21E, elevation: 239 m

Current weather observation

The report was made 27 minutes ago, at 01:00 UTC
Wind 15 kt from the East/Southeast with gusts up to 26 kt
Temperature 12°C
Humidity 38%
Pressure 1029 hPa
Visibility 10 km or more
no clouds below 1500 m and no cumulonimbus

METAR: LFCK 030100Z AUTO 11015G26KT CAVOK 12/M02 Q1029

Time: 02:27 (01:27 UTC)

Forecast

The report was made 8 hours and 27 minutes ago, at 17:00 UTC
Forecast valid from 02 at 18 UTC to 03 at 03 UTC
Wind 20 kt from the Southeast with gusts up to 30 kt
Visibility 10 km or more
no clouds below 1500 m and no cumulonimbus
Probability 30% :
Temporary
from 02 at 18 UTC to 02 at 23 UTC
Wind 28 kt from the Southeast with gusts up to 38 kt

TAF: LFCK 021700Z 0218/0303 13020G30KT CAVOK PROB30 TEMPO 0218/0223 13028G38KT

Weather observations and forecasts of more than 4000 airports (METAR and TAF reports).

The available stations are represented by yellow and red dots on the map.

Hover mouse over dot to see the name of the station.

Then click to see weather observations and forecasts.

To change the map : click on the green buttons with a black cross to zoom in, on the green button with a dash to zoom out, or on the green arrows for adjacent maps.


METAR-TAF: